createdAt,value
2017-06-29T00:01:15.503Z,8.70
2017-06-29T00:03:43.611Z,9.17
2017-06-29T00:06:11.687Z,7.70
2017-06-29T00:08:40.788Z,10.50
2017-06-29T00:11:08.868Z,8.70
2017-06-29T00:13:36.944Z,9.10
2017-06-29T00:16:05.036Z,10.50
2017-06-29T00:18:33.124Z,10.83
2017-06-29T00:21:01.229Z,10.13
2017-06-29T00:23:29.307Z,10.80
2017-06-29T00:25:57.493Z,9.43
2017-06-29T00:28:25.588Z,12.87
2017-06-29T00:30:53.679Z,13.17
2017-06-29T00:33:21.911Z,14.77
2017-06-29T00:35:50.015Z,12.03
2017-06-29T00:38:18.151Z,14.47
2017-06-29T00:40:46.252Z,13.83
2017-06-29T00:43:14.362Z,14.17
2017-06-29T00:45:42.553Z,14.23
2017-06-29T00:48:10.749Z,13.40
2017-06-29T00:50:38.834Z,14.27
2017-06-29T00:53:06.944Z,19.80
2017-06-29T00:55:35.027Z,19.40
2017-06-29T00:58:03.119Z,13.37
2017-06-29T01:00:31.218Z,12.47
2017-06-29T01:02:59.304Z,13.80
2017-06-29T01:05:27.390Z,18.43
2017-06-29T01:07:55.483Z,13.13
2017-06-29T01:10:23.575Z,11.33
2017-06-29T01:12:51.656Z,13.20
2017-06-29T01:15:19.747Z,13.60
2017-06-29T01:17:47.829Z,11.90
2017-06-29T01:20:15.918Z,17.37
2017-06-29T01:22:43.998Z,10.20
2017-06-29T01:25:12.091Z,9.77
2017-06-29T01:27:40.173Z,17.73
2017-06-29T01:30:08.265Z,13.13
2017-06-29T01:32:36.338Z,9.90
2017-06-29T01:35:04.437Z,9.67
2017-06-29T01:37:32.522Z,9.23
2017-06-29T01:40:00.603Z,11.40
2017-06-29T01:42:28.691Z,14.07
2017-06-29T01:44:56.779Z,13.73
2017-06-29T01:47:24.868Z,14.27
2017-06-29T01:49:52.956Z,17.23
2017-06-29T01:52:21.047Z,13.80
2017-06-29T01:54:49.135Z,16.27
2017-06-29T01:57:17.223Z,14.20
2017-06-29T01:59:45.300Z,13.60
2017-06-29T02:02:13.399Z,12.00
2017-06-29T02:04:41.466Z,8.93
2017-06-29T02:07:09.557Z,12.00
2017-06-29T02:09:37.647Z,12.33
2017-06-29T02:12:05.732Z,10.43
2017-06-29T02:14:33.813Z,8.30
2017-06-29T02:17:01.891Z,9.37
2017-06-29T02:19:29.972Z,6.63
2017-06-29T02:21:58.045Z,5.67
2017-06-29T02:24:26.151Z,6.17
2017-06-29T02:26:54.236Z,5.10
2017-06-29T02:29:22.337Z,5.20
2017-06-29T02:31:50.413Z,4.60
2017-06-29T02:34:18.495Z,4.70
2017-06-29T02:36:46.584Z,5.37
2017-06-29T02:39:14.655Z,5.87
2017-06-29T02:41:42.746Z,5.50
2017-06-29T02:44:10.823Z,5.40
2017-06-29T02:46:38.906Z,4.93
2017-06-29T02:49:06.985Z,5.40
2017-06-29T02:51:35.068Z,5.10
2017-06-29T02:54:03.136Z,5.60
2017-06-29T02:56:31.228Z,6.50
2017-06-29T02:58:59.306Z,6.60
2017-06-29T03:01:27.397Z,4.87
2017-06-29T03:03:55.519Z,5.50
2017-06-29T03:06:23.597Z,5.90
2017-06-29T03:08:51.679Z,7.20
2017-06-29T03:11:19.754Z,7.37
2017-06-29T03:13:47.839Z,6.13
2017-06-29T03:16:15.920Z,8.20
2017-06-29T03:18:44.011Z,6.73
2017-06-29T03:21:12.091Z,5.00
2017-06-29T03:23:40.169Z,7.67
2017-06-29T03:26:08.248Z,8.17
2017-06-29T03:28:36.328Z,8.40
2017-06-29T03:31:04.426Z,8.13
2017-06-29T03:33:32.490Z,8.77
2017-06-29T03:36:00.591Z,7.97
2017-06-29T03:38:28.688Z,8.40
2017-06-29T03:40:56.771Z,6.90
2017-06-29T03:43:24.853Z,6.10
2017-06-29T03:45:52.948Z,5.60
2017-06-29T03:48:21.019Z,4.33
2017-06-29T03:50:49.095Z,4.93
2017-06-29T03:53:17.183Z,5.00
2017-06-29T03:55:45.271Z,5.90
2017-06-29T03:58:13.358Z,4.07
2017-06-29T04:00:41.437Z,6.07
2017-06-29T04:03:09.519Z,4.40
2017-06-29T04:05:37.599Z,3.50
2017-06-29T04:08:05.685Z,3.57
2017-06-29T04:10:33.762Z,5.40
2017-06-29T04:13:01.843Z,4.50
2017-06-29T04:15:29.929Z,4.80
2017-06-29T04:17:58.007Z,5.27
2017-06-29T04:20:26.094Z,2.30
2017-06-29T04:22:54.170Z,2.90
2017-06-29T04:25:22.250Z,2.30
2017-06-29T04:27:50.314Z,1.70
2017-06-29T04:30:18.416Z,1.83
2017-06-29T04:32:46.501Z,1.70
2017-06-29T04:35:14.577Z,1.40
2017-06-29T04:37:42.654Z,1.53
2017-06-29T04:40:10.751Z,1.70
2017-06-29T04:42:38.836Z,1.60
2017-06-29T04:45:06.915Z,1.60
2017-06-29T04:47:35.002Z,1.33
2017-06-29T04:50:03.097Z,1.40
2017-06-29T04:52:31.183Z,1.93
2017-06-29T04:54:59.258Z,1.90
2017-06-29T04:57:27.340Z,1.40
2017-06-29T04:59:55.420Z,1.30
2017-06-29T05:02:23.494Z,1.40
2017-06-29T05:04:51.585Z,1.60
2017-06-29T05:07:19.690Z,1.30
2017-06-29T05:09:47.779Z,1.17
2017-06-29T05:12:15.862Z,1.10
2017-06-29T05:14:43.959Z,1.00
2017-06-29T05:17:12.035Z,1.47
2017-06-29T05:19:40.119Z,1.20
2017-06-29T05:22:08.194Z,1.30
2017-06-29T05:24:36.268Z,1.00
2017-06-29T05:27:04.347Z,1.10
2017-06-29T05:29:32.437Z,1.00
2017-06-29T05:32:00.519Z,0.93
2017-06-29T05:34:28.599Z,0.80
2017-06-29T05:36:56.691Z,1.33
2017-06-29T05:39:24.755Z,0.97
2017-06-29T05:41:52.835Z,1.00
2017-06-29T05:44:20.918Z,0.90
2017-06-29T05:46:48.979Z,1.03
2017-06-29T05:49:17.068Z,1.00
2017-06-29T05:51:45.140Z,0.90
2017-06-29T05:54:13.225Z,0.90
2017-06-29T05:56:41.299Z,0.80
2017-06-29T05:59:09.383Z,1.10
2017-06-29T06:01:37.467Z,0.90
2017-06-29T06:04:05.543Z,0.87
2017-06-29T06:06:33.623Z,0.97
2017-06-29T06:09:01.702Z,1.30
2017-06-29T06:11:29.798Z,0.90
2017-06-29T06:13:57.879Z,0.80
2017-06-29T06:16:25.964Z,0.90
2017-06-29T06:18:54.038Z,0.80
2017-06-29T06:21:22.120Z,0.80
2017-06-29T06:23:50.186Z,0.70
2017-06-29T06:26:18.435Z,0.80
2017-06-29T06:28:46.510Z,1.00
2017-06-29T06:31:14.591Z,0.70
2017-06-29T06:33:42.670Z,0.70
2017-06-29T06:36:10.741Z,0.80
2017-06-29T06:38:38.832Z,0.60
2017-06-29T06:41:06.903Z,0.70
2017-06-29T06:43:34.983Z,0.80
2017-06-29T06:46:03.064Z,0.70
2017-06-29T06:48:31.164Z,1.00
2017-06-29T06:50:59.235Z,0.90
2017-06-29T06:53:27.311Z,1.03
2017-06-29T06:55:55.386Z,1.17
2017-06-29T06:58:23.468Z,0.80
2017-06-29T07:00:51.557Z,1.00
2017-06-29T07:03:19.642Z,1.00
2017-06-29T07:05:47.728Z,1.07
2017-06-29T07:08:15.846Z,1.00
2017-06-29T07:10:43.924Z,1.20
2017-06-29T07:13:12.043Z,1.27
2017-06-29T07:15:40.378Z,1.20
2017-06-29T07:18:08.461Z,1.23
2017-06-29T07:22:54.427Z,1.30
2017-06-29T07:25:22.503Z,1.10
2017-06-29T07:27:50.591Z,1.03
2017-06-29T07:30:18.671Z,1.10
2017-06-29T07:32:47.530Z,1.00
2017-06-29T07:35:15.722Z,0.90
2017-06-29T07:37:43.823Z,1.00
2017-06-29T07:40:11.897Z,1.10
2017-06-29T07:42:39.964Z,0.90
2017-06-29T07:45:08.047Z,1.00
2017-06-29T07:47:36.116Z,1.13
2017-06-29T07:50:04.195Z,1.20
2017-06-29T07:52:32.272Z,1.17
2017-06-29T07:55:00.598Z,1.33
2017-06-29T07:57:28.672Z,1.33
2017-06-29T07:59:56.770Z,1.30
2017-06-29T08:02:24.851Z,1.40
2017-06-29T08:04:52.940Z,1.33
2017-06-29T08:07:21.015Z,1.70
2017-06-29T08:09:49.107Z,1.50
2017-06-29T08:12:17.186Z,2.17
2017-06-29T08:14:45.267Z,2.70
2017-06-29T08:17:13.347Z,1.87
2017-06-29T08:19:41.440Z,2.07
2017-06-29T08:22:09.517Z,2.27
2017-06-29T08:24:37.600Z,1.70
2017-06-29T08:27:05.680Z,2.10
2017-06-29T08:29:33.749Z,2.37
2017-06-29T08:32:01.837Z,1.93
2017-06-29T08:34:29.902Z,2.10
2017-06-29T08:36:57.983Z,2.00
2017-06-29T08:39:26.064Z,1.70
2017-06-29T08:41:54.150Z,1.57
2017-06-29T08:44:22.241Z,1.77
2017-06-29T08:46:50.321Z,1.73
2017-06-29T08:49:18.411Z,1.70
2017-06-29T08:51:46.479Z,1.87
2017-06-29T08:54:14.777Z,1.60
2017-06-29T08:56:42.869Z,1.87
2017-06-29T08:59:10.977Z,1.63
2017-06-29T09:01:39.042Z,1.40
2017-06-29T09:04:07.140Z,1.60
2017-06-29T09:06:35.231Z,1.40
2017-06-29T09:09:03.311Z,1.47
2017-06-29T09:11:31.396Z,1.47
2017-06-29T09:13:59.473Z,1.70
2017-06-29T09:16:27.555Z,1.57
2017-06-29T09:18:55.664Z,1.97
2017-06-29T09:21:23.751Z,1.60
2017-06-29T09:23:51.822Z,1.70
2017-06-29T09:26:19.907Z,1.80
2017-06-29T09:28:47.987Z,2.13
2017-06-29T09:31:16.091Z,2.23
2017-06-29T09:33:44.154Z,2.13
2017-06-29T09:36:12.234Z,2.60
2017-06-29T09:38:40.319Z,2.50
2017-06-29T09:41:08.406Z,2.30
2017-06-29T09:43:36.490Z,2.33
2017-06-29T09:46:04.564Z,2.40
2017-06-29T09:48:32.649Z,2.67
2017-06-29T09:51:00.719Z,2.67
2017-06-29T09:53:28.804Z,2.70
2017-06-29T09:55:56.878Z,3.30
2017-06-29T09:58:24.955Z,3.30
2017-06-29T10:00:53.032Z,3.30
2017-06-29T10:03:21.119Z,2.73
2017-06-29T10:05:49.202Z,2.70
2017-06-29T10:08:17.274Z,2.80
2017-06-29T10:10:45.350Z,3.23
2017-06-29T10:13:13.433Z,3.10
2017-06-29T10:15:41.507Z,2.50
2017-06-29T10:18:09.585Z,3.30
2017-06-29T10:20:37.666Z,3.00
2017-06-29T10:23:05.748Z,2.57
2017-06-29T10:25:33.837Z,3.37
2017-06-29T10:28:01.923Z,3.10
2017-06-29T10:30:30.009Z,2.80
2017-06-29T10:32:58.114Z,3.50
2017-06-29T10:35:26.202Z,4.30
2017-06-29T10:37:54.455Z,4.80
2017-06-29T10:40:22.727Z,3.70
2017-06-29T10:42:50.806Z,4.93
2017-06-29T10:45:18.899Z,5.40
2017-06-29T10:47:47.000Z,4.50
2017-06-29T10:50:15.075Z,5.73
2017-06-29T10:52:43.163Z,4.73
2017-06-29T10:55:11.251Z,6.30
2017-06-29T10:57:39.321Z,5.17
2017-06-29T11:00:07.428Z,5.70
2017-06-29T11:02:35.478Z,7.23
2017-06-29T11:05:03.563Z,6.07
2017-06-29T11:07:31.635Z,5.07
2017-06-29T11:09:59.709Z,5.47
2017-06-29T11:12:27.810Z,5.97
2017-06-29T11:14:55.888Z,5.77
2017-06-29T11:17:23.967Z,5.57
2017-06-29T11:19:52.059Z,5.70
2017-06-29T11:22:20.140Z,5.40
2017-06-29T11:24:48.215Z,6.40
2017-06-29T11:27:16.318Z,6.90
2017-06-29T11:29:44.411Z,9.90
2017-06-29T11:32:12.500Z,7.63
2017-06-29T11:34:40.584Z,4.80
2017-06-29T11:37:08.658Z,4.67
2017-06-29T11:39:36.747Z,3.90
2017-06-29T11:42:04.823Z,3.80
2017-06-29T11:44:32.916Z,4.43
2017-06-29T11:47:01.009Z,3.80
2017-06-29T11:49:29.095Z,3.90
2017-06-29T11:51:57.181Z,3.80
2017-06-29T11:54:25.259Z,4.43
2017-06-29T11:56:53.339Z,3.83
2017-06-29T11:59:21.455Z,3.30
2017-06-29T12:01:49.547Z,3.87
2017-06-29T12:04:17.629Z,4.23
2017-06-29T12:06:45.706Z,4.60
2017-06-29T12:09:13.796Z,3.67
2017-06-29T12:11:41.900Z,4.17
2017-06-29T12:14:09.981Z,4.10
2017-06-29T12:16:38.065Z,4.30
2017-06-29T12:19:06.154Z,4.37
2017-06-29T12:21:34.230Z,4.43
2017-06-29T12:24:02.311Z,4.13
2017-06-29T12:26:30.405Z,4.50
2017-06-29T12:28:58.485Z,3.80
2017-06-29T12:31:26.572Z,3.73
2017-06-29T12:33:54.658Z,4.17
2017-06-29T12:36:22.742Z,4.30
2017-06-29T12:38:50.834Z,9.43
2017-06-29T12:41:18.908Z,3.93
2017-06-29T12:43:46.995Z,4.03
2017-06-29T12:46:15.071Z,4.07
2017-06-29T12:48:43.160Z,4.50
2017-06-29T12:51:11.240Z,4.43
2017-06-29T12:53:39.322Z,4.40
2017-06-29T12:56:07.408Z,3.83
2017-06-29T12:58:35.478Z,4.13
2017-06-29T13:01:03.560Z,4.37
2017-06-29T13:03:31.634Z,3.70
2017-06-29T13:05:59.715Z,4.07
2017-06-29T13:08:27.801Z,3.80
2017-06-29T13:10:55.888Z,4.57
2017-06-29T13:13:23.977Z,4.00
2017-06-29T13:15:52.051Z,4.93
2017-06-29T13:18:20.130Z,3.90
2017-06-29T13:20:48.225Z,3.70
2017-06-29T13:23:16.295Z,4.07
2017-06-29T13:25:44.371Z,4.03
2017-06-29T13:28:12.456Z,7.90
2017-06-29T13:30:40.532Z,5.90
2017-06-29T13:33:08.619Z,5.10
2017-06-29T13:35:36.698Z,12.60
2017-06-29T13:38:04.795Z,5.10
2017-06-29T13:40:32.884Z,4.33
2017-06-29T13:43:00.965Z,6.17
2017-06-29T13:45:29.042Z,5.47
2017-06-29T13:47:57.128Z,4.37
2017-06-29T13:50:25.223Z,4.07
2017-06-29T13:52:53.298Z,3.23
2017-06-29T13:55:21.388Z,3.17
2017-06-29T13:57:49.464Z,3.20
2017-06-29T14:00:17.535Z,3.47
2017-06-29T14:02:45.623Z,2.80
2017-06-29T14:05:13.712Z,2.87
2017-06-29T14:07:41.788Z,2.60
2017-06-29T14:10:09.876Z,2.20
2017-06-29T14:12:37.959Z,2.60
2017-06-29T14:15:06.051Z,2.20
2017-06-29T14:17:34.125Z,2.57
2017-06-29T14:20:02.208Z,2.33
2017-06-29T14:22:30.288Z,3.10
2017-06-29T14:24:58.377Z,2.83
2017-06-29T14:27:26.459Z,2.60
2017-06-29T14:29:54.569Z,2.60
2017-06-29T14:32:22.651Z,2.97
2017-06-29T14:34:50.735Z,2.60
2017-06-29T14:37:18.832Z,2.40
2017-06-29T14:39:46.912Z,2.50
2017-06-29T14:42:15.007Z,2.30
2017-06-29T14:44:43.102Z,1.90
2017-06-29T14:47:11.208Z,1.93
2017-06-29T14:49:39.292Z,2.60
2017-06-29T14:52:07.391Z,2.30
2017-06-29T14:54:35.464Z,1.90
2017-06-29T14:57:03.535Z,2.43
2017-06-29T14:59:31.620Z,2.13
2017-06-29T15:01:59.699Z,2.50
2017-06-29T15:04:27.790Z,1.90
2017-06-29T15:06:55.872Z,2.17
2017-06-29T15:09:23.959Z,2.90
2017-06-29T15:11:52.049Z,1.97
2017-06-29T15:14:20.137Z,1.87
2017-06-29T15:16:48.215Z,2.10
2017-06-29T15:19:16.307Z,2.00
2017-06-29T15:21:44.388Z,1.97
2017-06-29T15:24:12.477Z,1.70
2017-06-29T15:26:40.574Z,2.20
2017-06-29T15:29:08.659Z,1.80
2017-06-29T15:31:36.750Z,1.90
2017-06-29T15:34:04.824Z,1.90
2017-06-29T15:36:32.908Z,2.30
2017-06-29T15:39:00.991Z,2.10
2017-06-29T15:41:29.087Z,2.70
2017-06-29T15:43:57.164Z,1.80
2017-06-29T15:46:25.261Z,10.83
2017-06-29T15:48:53.345Z,5.70
2017-06-29T15:51:21.429Z,3.83
2017-06-29T15:53:49.530Z,2.00
2017-06-29T15:56:17.611Z,1.80
2017-06-29T15:58:45.698Z,1.90
2017-06-29T16:01:13.817Z,1.50
2017-06-29T16:03:41.919Z,1.70
2017-06-29T16:06:10.003Z,2.07
2017-06-29T16:08:38.109Z,1.33
2017-06-29T16:11:06.959Z,1.70
2017-06-29T16:13:35.093Z,1.50
2017-06-29T16:16:03.170Z,1.30
2017-06-29T16:18:31.287Z,1.40
2017-06-29T16:20:59.462Z,1.30
2017-06-29T16:23:28.214Z,1.30
2017-06-29T16:25:56.653Z,1.50
2017-06-29T16:28:24.769Z,1.33
2017-06-29T16:30:52.860Z,1.60
2017-06-29T16:33:20.943Z,1.50
2017-06-29T16:35:49.052Z,1.43
2017-06-29T16:38:17.123Z,1.20
2017-06-29T16:40:45.198Z,1.57
2017-06-29T16:43:13.294Z,1.20
2017-06-29T16:45:41.379Z,1.47
2017-06-29T16:48:09.477Z,1.30
2017-06-29T16:50:37.553Z,1.40
2017-06-29T16:53:05.643Z,1.33
2017-06-29T16:55:33.719Z,1.37
2017-06-29T16:58:01.804Z,1.20
2017-06-29T17:00:29.891Z,1.30
2017-06-29T17:02:57.973Z,1.47
2017-06-29T17:05:26.052Z,1.40
2017-06-29T17:07:54.132Z,1.73
2017-06-29T17:10:22.212Z,1.60
2017-06-29T17:12:50.311Z,1.70
2017-06-29T17:15:18.398Z,1.50
2017-06-29T17:17:46.475Z,1.40
2017-06-29T17:20:14.559Z,1.37
2017-06-29T17:22:42.630Z,1.00
2017-06-29T17:25:10.727Z,1.40
2017-06-29T17:30:35.385Z,1.60
2017-06-29T17:33:03.476Z,1.40
2017-06-29T17:35:31.567Z,1.63
2017-06-29T17:37:59.634Z,1.60
2017-06-29T17:40:27.699Z,1.40
2017-06-29T17:42:55.812Z,1.33
2017-06-29T17:45:23.885Z,1.33
2017-06-29T17:47:51.996Z,1.73
2017-06-29T17:50:20.082Z,1.37
2017-06-29T17:52:48.167Z,1.07
2017-06-29T17:55:16.239Z,1.10
2017-06-29T17:57:44.339Z,1.30
2017-06-29T18:00:12.411Z,1.33
2017-06-29T18:02:40.484Z,1.30
2017-06-29T18:05:08.568Z,1.30
2017-06-29T18:07:36.648Z,1.10
2017-06-29T18:10:04.750Z,1.10
2017-06-29T18:12:32.823Z,1.20
2017-06-29T18:15:00.913Z,1.20
2017-06-29T18:17:28.999Z,1.10
2017-06-29T18:19:57.099Z,1.00
2017-06-29T18:22:25.190Z,1.00
2017-06-29T18:24:53.271Z,1.20
2017-06-29T18:27:21.357Z,0.90
2017-06-29T18:29:49.422Z,1.10
2017-06-29T18:32:17.515Z,1.00
2017-06-29T18:34:45.599Z,1.00
2017-06-29T18:37:13.693Z,1.20
2017-06-29T18:39:41.797Z,1.20
2017-06-29T18:42:09.897Z,1.23
2017-06-29T18:44:37.943Z,1.33
2017-06-29T18:47:06.036Z,1.37
2017-06-29T18:49:34.121Z,1.60
2017-06-29T18:52:02.204Z,2.23
2017-06-29T18:54:30.295Z,1.20
2017-06-29T18:56:58.410Z,1.27
2017-06-29T18:59:26.479Z,1.50
2017-06-29T19:01:54.565Z,2.57
2017-06-29T19:04:22.703Z,2.53
2017-06-29T19:06:50.947Z,1.90
2017-06-29T19:09:19.018Z,2.07
2017-06-29T19:11:47.125Z,2.60
2017-06-29T19:14:15.204Z,1.80
2017-06-29T19:16:43.316Z,2.07
2017-06-29T19:19:11.408Z,1.87
2017-06-29T19:21:39.503Z,4.17
2017-06-29T19:24:07.588Z,1.50
2017-06-29T19:26:35.658Z,2.10
2017-06-29T19:29:03.973Z,2.53
2017-06-29T19:31:32.036Z,3.40
2017-06-29T19:34:00.122Z,1.67
2017-06-29T19:36:28.212Z,3.50
2017-06-29T19:38:56.297Z,1.70
2017-06-29T19:41:24.388Z,2.10
2017-06-29T19:43:52.486Z,1.57
2017-06-29T19:46:20.546Z,1.60
2017-06-29T19:48:48.636Z,2.80
2017-06-29T19:51:16.732Z,1.77
2017-06-29T19:53:44.808Z,1.67
2017-06-29T19:56:12.916Z,1.57
2017-06-29T19:58:40.991Z,2.10
2017-06-29T20:01:09.092Z,1.80
2017-06-29T20:03:37.167Z,1.50
2017-06-29T20:06:05.253Z,2.10
2017-06-29T20:08:33.383Z,1.60
2017-06-29T20:11:01.459Z,2.40
2017-06-29T20:13:29.552Z,2.10
2017-06-29T20:15:57.620Z,5.30
2017-06-29T20:18:25.721Z,5.10
2017-06-29T20:20:53.796Z,1.90
2017-06-29T20:23:21.892Z,1.70
2017-06-29T20:25:49.963Z,1.50
2017-06-29T20:28:18.048Z,2.03
2017-06-29T20:30:46.139Z,2.30
2017-06-29T20:33:14.286Z,1.60
2017-06-29T20:35:42.363Z,3.07
2017-06-29T20:38:10.440Z,1.30
2017-06-29T20:40:38.521Z,1.20
2017-06-29T20:43:06.639Z,3.17
2017-06-29T20:45:34.719Z,1.67
2017-06-29T20:48:02.804Z,1.87
2017-06-29T20:50:30.885Z,1.37
2017-06-29T20:52:58.967Z,2.10
2017-06-29T20:55:27.116Z,2.73
2017-06-29T20:57:55.203Z,1.77
2017-06-29T21:00:23.317Z,1.80
2017-06-29T21:02:51.412Z,1.30
2017-06-29T21:05:19.487Z,1.30
2017-06-29T21:07:47.559Z,1.40
2017-06-29T21:10:15.644Z,1.40
2017-06-29T21:12:43.734Z,3.57
2017-06-29T21:15:11.811Z,2.27
2017-06-29T21:17:39.901Z,1.40
2017-06-29T21:20:07.987Z,1.50
2017-06-29T21:22:36.072Z,1.20
2017-06-29T21:25:04.155Z,1.40
2017-06-29T21:27:32.229Z,1.40
2017-06-29T21:30:00.316Z,1.87
2017-06-29T21:32:28.396Z,1.77
2017-06-29T21:34:56.483Z,3.47
2017-06-29T21:37:24.562Z,1.60
2017-06-29T21:39:52.844Z,1.50
2017-06-29T21:42:20.932Z,2.30
2017-06-29T21:44:49.011Z,1.23
2017-06-29T21:47:17.090Z,1.60
2017-06-29T21:49:45.177Z,2.17
2017-06-29T21:52:13.260Z,2.53
2017-06-29T21:54:41.336Z,2.37
2017-06-29T21:57:09.421Z,1.70
2017-06-29T21:59:37.495Z,1.27
2017-06-29T22:02:05.595Z,2.20
2017-06-29T22:04:33.683Z,1.63
2017-06-29T22:07:01.771Z,1.40
2017-06-29T22:09:29.864Z,1.30
2017-06-29T22:11:57.948Z,1.40
2017-06-29T22:14:26.023Z,2.20
2017-06-29T22:16:54.097Z,2.63
2017-06-29T22:19:22.173Z,3.03
2017-06-29T22:21:50.251Z,1.40
2017-06-29T22:24:18.331Z,1.50
2017-06-29T22:26:46.409Z,1.90
2017-06-29T22:29:14.491Z,2.90
2017-06-29T22:31:42.567Z,1.70
2017-06-29T22:34:10.736Z,2.17
2017-06-29T22:36:38.818Z,1.93
2017-06-29T22:39:06.903Z,1.70
2017-06-29T22:41:34.979Z,1.30
2017-06-29T22:44:03.059Z,1.93
2017-06-29T22:46:31.145Z,1.50
2017-06-29T22:48:59.225Z,1.50
2017-06-29T22:51:27.306Z,1.70
2017-06-29T22:53:55.387Z,1.57
2017-06-29T22:56:23.467Z,1.50
2017-06-29T22:58:51.548Z,1.40
2017-06-29T23:01:19.638Z,1.50
2017-06-29T23:03:47.771Z,1.40
2017-06-29T23:06:15.854Z,1.50
2017-06-29T23:08:43.940Z,1.83
2017-06-29T23:11:12.020Z,1.50
2017-06-29T23:13:40.123Z,1.70
2017-06-29T23:16:08.385Z,1.57
2017-06-29T23:18:36.538Z,1.67
2017-06-29T23:21:04.723Z,2.63
2017-06-29T23:23:32.987Z,1.47
2017-06-29T23:26:01.085Z,1.90
2017-06-29T23:28:29.347Z,1.40
2017-06-29T23:30:57.426Z,1.80
2017-06-29T23:33:25.508Z,1.80
2017-06-29T23:35:53.597Z,1.77
2017-06-29T23:38:21.675Z,1.73
2017-06-29T23:40:49.759Z,1.80
2017-06-29T23:43:17.838Z,1.70
2017-06-29T23:45:45.924Z,4.43
2017-06-29T23:48:14.003Z,1.60
2017-06-29T23:50:42.082Z,1.77
2017-06-29T23:53:10.191Z,1.70
2017-06-29T23:55:38.302Z,1.60
2017-06-29T23:58:06.383Z,1.80
